Time;durP1;ratioP1;P1;durP2;ratioP2;P2;SDS_P1;SDS_P2;PMS_P1;PMS_P2;Temp;Humidity;BMP_temperature;BMP_pressure;BME280_temperature;BME280_humidity;BME280_pressure;Samples;Min_cycle;Max_cycle;Signal;HPM_P1;HPM_P2
2023/12/28 00:01:36;;;;;;;;;;;;;;;;;;;;;
2023/12/28 00:04:34;;;;;;;;;;;;;;;;;;;;;
2023/12/28 00:07:59;;;;;;;;;;;;;;;;;;;;;
2023/12/28 00:11:29;;;;;;;;;;;;;;;;;;;;;
2023/12/28 00:14:20;;;;;;;;;;;;;;;;;;;;;
2023/12/28 00:17:17;;;;;;;;;;;;;;;;;;;;;
2023/12/28 00:20:26;;;;;;;;;;;;;;;;;;;;;
2023/12/28 00:23:24;;;;;;;9.13;5.07;;;-3.60;76.00;;;;;;4808139;29;20057;-86
2023/12/28 00:25:54;;;;;;;8.63;4.35;;;-3.40;76.30;;;;;;4858811;29;20050;-85
2023/12/28 00:28:21;;;;;;;10.65;5.25;;;-3.30;76.00;;;;;;4834066;29;20090;-86
2023/12/28 00:30:51;;;;;;;9.75;5.18;;;-3.30;76.00;;;;;;4865878;29;20049;-85
2023/12/28 00:33:19;;;;;;;10.25;5.53;;;-3.30;76.20;;;;;;4865832;29;20058;-84
2023/12/28 00:35:47;;;;;;;8.98;4.80;;;-3.30;76.30;;;;;;4836704;29;20455;-85
2023/12/28 00:38:14;;;;;;;11.32;5.80;;;-3.30;76.70;;;;;;4880435;29;20074;-86
2023/12/28 00:40:45;;;;;;;10.88;6.03;;;-3.10;77.00;;;;;;4865547;29;20057;-87
2023/12/28 00:43:16;;;;;;;12.52;5.38;;;-3.10;76.70;;;;;;4850596;29;20062;-87
2023/12/28 00:45:47;;;;;;;9.85;5.20;;;-3.10;76.80;;;;;;4865436;29;20053;-85
2023/12/28 00:48:15;;;;;;;8.70;4.88;;;-3.00;76.50;;;;;;4862906;29;20054;-86
2023/12/28 00:51:05;;;;;;;;;;;;;;;;;;;;;
2023/12/28 00:54:11;;;;;;;;;;;;;;;;;;;;;
2023/12/28 00:58:03;;;;;;;;;;;;;;;;;;;;;
2023/12/28 01:04:30;;;;;;;10.73;6.28;;;-3.20;77.00;;;;;;4880933;29;20051;-85
2023/12/28 01:07:04;;;;;;;14.00;5.82;;;-3.20;77.20;;;;;;4926046;28;20056;-86
2023/12/28 01:09:34;;;;;;;9.05;5.53;;;-3.20;77.40;;;;;;4948795;29;20531;-81
2023/12/28 01:12:04;;;;;;;10.48;6.60;;;-3.10;78.00;;;;;;4961442;28;20134;-86
2023/12/28 01:14:35;;;;;;;11.80;6.60;;;-3.10;77.80;;;;;;4913633;28;20051;-86
2023/12/28 01:17:08;;;;;;;12.52;6.85;;;-3.00;77.80;;;;;;4937000;29;20134;-86
2023/12/28 01:19:42;;;;;;;9.05;5.78;;;-3.00;77.80;;;;;;4933491;29;20059;-84
2023/12/28 01:22:46;;;;;;;16.20;7.18;;;-2.90;77.80;;;;;;4910609;29;20051;-85
2023/12/28 01:25:16;;;;;;;12.07;6.93;;;-3.00;77.80;;;;;;4922117;29;20058;-88
2023/12/28 01:27:43;;;;;;;17.92;7.93;;;-3.00;78.20;;;;;;4892222;29;20134;-89
2023/12/28 01:30:13;;;;;;;15.02;7.10;;;-2.90;78.40;;;;;;4896193;29;20067;-88
2023/12/28 01:32:41;;;;;;;14.10;7.65;;;-2.90;78.20;;;;;;4924448;29;20063;-88
2023/12/28 01:35:09;;;;;;;13.63;7.35;;;-2.90;78.40;;;;;;4967246;28;20093;-87
2023/12/28 01:37:40;;;;;;;13.40;6.88;;;-2.90;78.30;;;;;;4950261;29;20134;-86
2023/12/28 01:40:10;;;;;;;13.90;8.07;;;-2.90;78.40;;;;;;4950305;29;20074;-87
2023/12/28 01:42:38;;;;;;;12.85;6.93;;;-2.80;78.40;;;;;;4930841;29;20078;-86
2023/12/28 01:45:09;;;;;;;16.10;8.05;;;-2.80;78.10;;;;;;4947349;29;20059;-86
2023/12/28 01:47:50;;;;;;;13.40;7.72;;;-2.70;78.10;;;;;;4941266;29;20537;-86
2023/12/28 01:50:18;;;;;;;12.13;6.97;;;-2.70;78.10;;;;;;4933087;28;20059;-89
2023/12/28 01:52:51;;;;;;;12.32;7.60;;;-2.60;78.20;;;;;;4978315;28;20078;-87
2023/12/28 01:55:52;;;;;;;10.32;6.13;;;-2.50;78.10;;;;;;4962393;28;20653;-87
2023/12/28 01:58:41;;;;;;;;;;;;;;;;;;;;;
2023/12/28 02:01:57;;;;;;;12.30;6.22;;;-2.40;77.70;;;;;;4914731;28;20212;-87
2023/12/28 02:05:12;;;;;;;8.82;6.00;;;-2.40;77.80;;;;;;4914239;29;20083;-87
2023/12/28 02:08:07;;;;;;;10.13;6.28;;;-2.20;78.10;;;;;;4902216;29;20687;-87
2023/12/28 02:10:40;;;;;;;9.75;6.22;;;-2.20;77.70;;;;;;4894190;28;20047;-86
2023/12/28 02:13:12;;;;;;;10.10;6.95;;;-2.20;77.50;;;;;;4942186;28;20046;-87
2023/12/28 02:15:43;;;;;;;11.68;6.32;;;-2.10;77.40;;;;;;5015010;28;20056;-88
2023/12/28 02:18:22;;;;;;;12.57;6.78;;;-2.00;77.30;;;;;;4994967;28;20025;-85
2023/12/28 02:21:14;;;;;;;14.20;7.32;;;-2.10;77.20;;;;;;4961038;28;20079;-89
2023/12/28 02:23:48;;;;;;;9.30;6.35;;;-2.00;77.30;;;;;;5007635;28;20053;-87
2023/12/28 02:26:18;;;;;;;15.00;7.18;;;-1.90;77.00;;;;;;5016485;28;20103;-87
2023/12/28 02:29:08;;;;;;;;;;;;;;;;;;;;;
2023/12/28 02:33:04;;;;;;;;;;;;;;;;;;;;;
2023/12/28 02:36:36;;;;;;;;;;;;;;;;;;;;;
2023/12/28 02:40:04;;;;;;;;;;;;;;;;;;;;;
2023/12/28 02:43:04;;;;;;;14.68;7.55;;;-2.10;77.00;;;;;;4821622;29;20138;-84
2023/12/28 02:45:34;;;;;;;13.20;7.70;;;-2.20;77.60;;;;;;4849977;29;20043;-83
2023/12/28 02:48:02;;;;;;;17.40;7.88;;;-2.30;77.00;;;;;;4974154;28;20052;-84
2023/12/28 02:50:30;;;;;;;16.63;9.20;;;-2.40;77.30;;;;;;4994988;28;20049;-84
2023/12/28 02:52:58;;;;;;;15.73;8.93;;;-2.30;77.30;;;;;;5002742;28;20052;-83
2023/12/28 02:55:27;;;;;;;15.90;8.63;;;-2.30;77.10;;;;;;4995191;28;20053;-83
2023/12/28 02:57:59;;;;;;;17.92;9.85;;;-2.30;77.00;;;;;;5048787;28;20049;-83
2023/12/28 03:00:28;;;;;;;19.33;9.27;;;-2.30;76.90;;;;;;5049308;28;20052;-84
2023/12/28 03:02:56;;;;;;;17.75;9.30;;;-2.30;77.00;;;;;;5034212;28;20534;-83
2023/12/28 03:05:24;;;;;;;18.00;7.97;;;-2.30;77.00;;;;;;5048404;28;20459;-82
2023/12/28 03:07:55;;;;;;;16.83;7.80;;;-2.30;76.90;;;;;;5068249;28;20614;-83
2023/12/28 03:10:24;;;;;;;12.18;7.00;;;-2.30;76.60;;;;;;5054846;28;20049;-83
2023/12/28 03:12:57;;;;;;;11.80;6.28;;;-2.40;76.40;;;;;;5017747;28;20508;-83
2023/12/28 03:16:22;;;;;;;;;;;;;;;;;;;;;
2023/12/28 03:52:34;;;;;;;;;;;;;;;;;;;;;
2023/12/28 03:59:54;;;;;;;17.33;8.35;;;-2.30;76.50;;;;;;4273530;29;15593148;-83
2023/12/28 04:02:59;;;;;;;;;;;;;;;;;;;;;
2023/12/28 04:09:26;;;;;;;16.77;8.80;;;-2.10;76.00;;;;;;4855921;29;20064;-86
2023/12/28 04:12:13;;;;;;;16.73;8.82;;;-2.10;75.90;;;;;;4894623;29;20127;-86
2023/12/28 04:15:38;;;;;;;17.63;9.00;;;-2.10;76.00;;;;;;4895167;29;20056;-88
2023/12/28 04:19:00;;;;;;;22.13;10.23;;;-2.10;76.10;;;;;;4874451;29;20080;-86
2023/12/28 04:22:44;;;;;;;;;;;;;;;;;;;;;
2023/12/28 04:30:02;;;;;;;;;;;;;;;;;;;;;
2023/12/28 04:32:44;;;;;;;23.92;11.23;;;-2.00;76.40;;;;;;4800418;29;20485;-83
2023/12/28 04:44:10;;;;;;;;;;;;;;;;;;;;;
2023/12/28 04:46:56;;;;;;;32.95;14.95;;;-1.80;75.90;;;;;;4753497;30;20056;-86
2023/12/28 04:49:42;;;;;;;31.48;14.95;;;-1.80;75.80;;;;;;4838828;29;20063;-85
2023/12/28 04:53:02;;;;;;;;;;;;;;;;;;;;;
2023/12/28 05:03:38;;;;;;;24.77;11.90;;;-1.60;76.00;;;;;;4785635;29;20120;-84
2023/12/28 05:06:47;;;;;;;20.42;12.05;;;-1.50;76.00;;;;;;4588638;30;20099;-85
2023/12/28 05:10:04;;;;;;;;;;;;;;;;;;;;;
2023/12/28 05:12:54;;;;;;;25.65;13.60;;;-1.30;76.30;;;;;;4575528;30;20428;-84
2023/12/28 05:16:09;;;;;;;23.98;12.55;;;-1.30;75.30;;;;;;4593769;30;20089;-81
2023/12/28 05:19:08;;;;;;;19.65;11.77;;;-1.20;75.10;;;;;;4583537;30;20130;-82
2023/12/28 05:21:37;;;;;;;20.13;11.48;;;-1.10;75.50;;;;;;4637926;30;20070;-79
2023/12/28 05:24:05;;;;;;;18.52;10.35;;;-1.10;75.00;;;;;;4674613;30;20661;-80
2023/12/28 05:26:44;;;;;;;16.92;9.35;;;-1.10;74.60;;;;;;4718989;30;20156;-78
2023/12/28 05:29:12;;;;;;;17.40;9.85;;;-1.10;74.70;;;;;;4704818;30;20608;-79
2023/12/28 05:31:41;;;;;;;17.40;9.18;;;-1.00;74.50;;;;;;4706251;30;20104;-80
2023/12/28 05:34:10;;;;;;;11.82;7.97;;;-1.00;74.10;;;;;;4762311;29;20062;-80
2023/12/28 05:36:40;;;;;;;12.15;7.88;;;-0.90;74.20;;;;;;4790014;29;20067;-77
2023/12/28 05:39:09;;;;;;;12.50;7.82;;;-0.90;73.90;;;;;;4805593;29;20532;-80
2023/12/28 05:41:36;;;;;;;13.65;8.48;;;-0.90;73.80;;;;;;4797236;29;20079;-80
2023/12/28 05:44:28;;;;;;;10.35;7.57;;;-0.80;74.00;;;;;;4871724;29;20702;-81
2023/12/28 05:46:58;;;;;;;11.80;7.75;;;-0.80;73.70;;;;;;4786064;29;20054;-79
2023/12/28 05:49:33;;;;;;;13.75;8.15;;;-0.80;73.60;;;;;;4895939;28;20134;-81
2023/12/28 05:52:17;;;;;;;10.75;7.45;;;-0.80;73.60;;;;;;4946776;28;20059;-82
2023/12/28 05:54:48;;;;;;;9.20;6.40;;;-0.80;73.60;;;;;;4966472;28;20181;-80
2023/12/28 05:57:17;;;;;;;13.52;7.13;;;-0.80;73.50;;;;;;4931614;28;20058;-79
2023/12/28 05:59:45;;;;;;;12.68;7.70;;;-0.80;73.40;;;;;;4919046;28;20051;-81
2023/12/28 06:05:11;;;;;;;13.82;7.47;;;-0.90;73.50;;;;;;4829494;29;20510;-80
2023/12/28 06:07:41;;;;;;;12.05;6.72;;;-0.90;73.50;;;;;;4888906;29;20560;-81
2023/12/28 06:10:14;;;;;;;13.40;8.35;;;-0.80;73.80;;;;;;4917391;29;20627;-81
2023/12/28 06:12:44;;;;;;;15.55;8.98;;;-0.80;73.60;;;;;;4946463;28;20069;-79
2023/12/28 06:15:16;;;;;;;12.75;7.47;;;-0.80;73.60;;;;;;4938594;28;20420;-80
2023/12/28 06:18:05;;;;;;;14.32;7.78;;;-0.80;73.30;;;;;;4909920;28;20058;-78
2023/12/28 06:20:44;;;;;;;;;;;;;;;;;;;;;
2023/12/28 06:23:29;;;;;;;12.32;7.43;;;-0.80;73.30;;;;;;4879705;29;20155;-79
2023/12/28 06:26:14;;;;;;;17.10;9.38;;;-0.70;73.20;;;;;;4912362;29;20056;-80
2023/12/28 06:32:18;;;;;;;16.02;9.15;;;-0.70;73.40;;;;;;5082844;27;20387;-79
2023/12/28 06:34:49;;;;;;;14.80;9.15;;;-0.60;73.10;;;;;;5057354;28;20469;-80
2023/12/28 06:37:17;;;;;;;14.88;8.85;;;-0.70;73.00;;;;;;5045313;28;20045;-80
2023/12/28 06:39:48;;;;;;;14.20;8.80;;;-0.70;73.20;;;;;;5045689;28;20072;-79
2023/12/28 06:42:16;;;;;;;14.90;7.85;;;-0.60;73.40;;;;;;5061323;28;20090;-80
2023/12/28 06:44:54;;;;;;;16.10;8.45;;;-0.60;73.10;;;;;;5046715;28;20053;-80
2023/12/28 06:47:34;;;;;;;22.48;11.65;;;-0.60;73.30;;;;;;5042041;28;20560;-79
2023/12/28 06:50:04;;;;;;;19.73;10.35;;;-0.60;73.30;;;;;;5045481;28;20628;-83
2023/12/28 06:52:40;;;;;;;20.75;10.30;;;-0.50;73.40;;;;;;5035866;28;20610;-78
2023/12/28 06:55:10;;;;;;;24.58;11.30;;;-0.60;73.40;;;;;;5041755;28;20045;-78
2023/12/28 06:57:45;;;;;;;29.05;11.18;;;-0.50;73.80;;;;;;5042497;28;20045;-79
2023/12/28 07:00:14;;;;;;;31.88;13.10;;;-0.50;73.70;;;;;;5044195;28;20610;-78
2023/12/28 07:03:08;;;;;;;43.53;13.27;;;-0.50;73.90;;;;;;5053150;28;20456;-78
2023/12/28 07:05:40;;;;;;;41.72;13.27;;;-0.60;74.10;;;;;;5062591;28;20095;-79
2023/12/28 07:08:13;;;;;;;38.22;14.75;;;-0.60;73.80;;;;;;5062695;28;20049;-80
2023/12/28 07:10:46;;;;;;;32.08;12.30;;;-0.50;74.40;;;;;;5055755;28;20048;-79
2023/12/28 07:13:13;;;;;;;37.03;13.13;;;-0.50;74.00;;;;;;5062054;28;20048;-80
2023/12/28 07:15:48;;;;;;;25.85;9.43;;;-0.50;74.50;;;;;;5061412;28;20056;-79
2023/12/28 07:18:17;;;;;;;22.95;9.95;;;-0.40;74.40;;;;;;5061021;28;20122;-79
2023/12/28 07:20:45;;;;;;;17.45;8.13;;;-0.30;74.00;;;;;;5061064;28;20131;-78
2023/12/28 07:23:16;;;;;;;19.83;8.90;;;-0.30;74.20;;;;;;5060847;28;20048;-80
2023/12/28 07:25:43;;;;;;;13.93;8.05;;;-0.20;74.20;;;;;;5046210;28;20057;-79
2023/12/28 07:28:11;;;;;;;11.32;6.72;;;-0.20;73.90;;;;;;5026726;28;20040;-78
2023/12/28 07:30:43;;;;;;;15.75;7.38;;;-0.20;73.80;;;;;;5054372;28;20444;-80
2023/12/28 07:33:12;;;;;;;13.23;6.55;;;-0.20;74.10;;;;;;5060926;28;20787;-79
2023/12/28 07:35:43;;;;;;;13.30;6.97;;;-0.10;74.20;;;;;;5060952;28;20070;-79
2023/12/28 07:38:12;;;;;;;12.63;6.72;;;0.00;73.70;;;;;;5052671;28;20136;-81
2023/12/28 07:40:40;;;;;;;10.27;6.93;;;0.00;73.40;;;;;;5045397;28;20047;-80
2023/12/28 07:43:07;;;;;;;14.02;7.13;;;0.00;73.40;;;;;;5037749;28;20148;-81
2023/12/28 07:45:38;;;;;;;13.98;6.75;;;-0.10;73.30;;;;;;5045965;28;20067;-78
2023/12/28 07:48:07;;;;;;;12.23;7.13;;;0.00;73.90;;;;;;5045060;28;20063;-78
2023/12/28 07:50:42;;;;;;;14.02;8.05;;;0.00;73.50;;;;;;5045154;28;20064;-80
2023/12/28 07:53:09;;;;;;;14.63;7.65;;;0.00;73.90;;;;;;5038547;28;20095;-78
2023/12/28 07:55:40;;;;;;;13.55;6.60;;;0.00;73.50;;;;;;5038446;28;20061;-81
2023/12/28 07:58:07;;;;;;;13.90;7.45;;;0.00;73.60;;;;;;5042838;28;20617;-80
2023/12/28 08:00:35;;;;;;;12.48;7.55;;;-0.10;73.70;;;;;;5034982;28;20537;-80
2023/12/28 08:03:02;;;;;;;11.80;6.57;;;0.00;73.50;;;;;;5045474;28;20143;-81
2023/12/28 08:05:29;;;;;;;13.70;7.68;;;0.00;73.90;;;;;;5039244;28;20053;-81
2023/12/28 08:07:58;;;;;;;13.63;7.60;;;0.00;73.70;;;;;;5028988;28;20048;-80
2023/12/28 08:10:26;;;;;;;10.68;6.43;;;0.00;73.80;;;;;;5028443;28;20052;-79
2023/12/28 08:12:53;;;;;;;13.80;7.45;;;0.20;73.90;;;;;;5024048;28;20045;-79
2023/12/28 08:15:21;;;;;;;13.90;7.45;;;0.00;73.50;;;;;;5035300;28;20037;-79
2023/12/28 08:17:49;;;;;;;14.60;7.90;;;0.10;73.70;;;;;;5036999;28;20048;-79
2023/12/28 08:20:22;;;;;;;14.15;8.27;;;0.10;73.60;;;;;;5046505;28;20040;-80
2023/12/28 08:22:49;;;;;;;;;;;0.20;73.90;;;;;;5045511;28;20048;-79
2023/12/28 08:25:18;;;;;;;13.98;7.57;;;0.10;73.80;;;;;;5044482;28;19929;-81
2023/12/28 08:27:46;;;;;;;12.98;6.88;;;0.20;74.00;;;;;;5027323;28;20041;-81
2023/12/28 08:30:14;;;;;;;13.32;8.00;;;0.10;74.00;;;;;;5043738;28;20053;-80
2023/12/28 08:32:43;;;;;;;12.90;7.38;;;0.10;74.10;;;;;;5022969;28;20041;-79
2023/12/28 08:35:10;;;;;;;14.32;8.50;;;0.10;74.60;;;;;;5043818;28;20048;-78
2023/12/28 08:37:37;;;;;;;12.23;7.40;;;0.20;74.70;;;;;;5044585;28;20115;-79
2023/12/28 08:40:09;;;;;;;19.45;8.93;;;0.20;74.10;;;;;;5027397;28;20499;-79
2023/12/28 08:42:40;;;;;;;14.15;7.53;;;0.20;74.20;;;;;;5015642;28;20077;-80
2023/12/28 08:45:08;;;;;;;11.02;6.82;;;0.20;74.10;;;;;;5029750;28;20041;-78
2023/12/28 08:47:35;;;;;;;12.43;7.97;;;0.30;74.40;;;;;;5044093;28;20515;-79
2023/12/28 08:50:06;;;;;;;17.23;8.02;;;0.30;74.30;;;;;;5024794;28;20116;-79
2023/12/28 08:52:34;;;;;;;12.13;6.95;;;0.20;74.30;;;;;;5044712;28;20053;-79
2023/12/28 08:55:01;;;;;;;20.80;12.65;;;0.20;74.90;;;;;;5043900;28;20045;-78
2023/12/28 08:57:31;;;;;;;11.30;6.57;;;0.30;74.10;;;;;;5043918;28;20138;-80
2023/12/28 09:00:02;;;;;;;17.67;7.65;;;0.40;75.20;;;;;;5037345;28;20521;-79
2023/12/28 09:02:32;;;;;;;12.57;6.63;;;0.50;74.00;;;;;;5025115;28;20123;-80
2023/12/28 09:05:00;;;;;;;16.25;7.47;;;0.50;73.70;;;;;;5027169;28;20045;-78
2023/12/28 09:07:28;;;;;;;14.30;7.13;;;0.40;73.20;;;;;;5044793;28;20082;-79
2023/12/28 09:09:56;;;;;;;14.32;7.95;;;0.40;72.80;;;;;;5047549;28;20099;-80
2023/12/28 09:12:23;;;;;;;13.32;6.72;;;0.30;73.20;;;;;;5043424;28;20048;-81
2023/12/28 09:14:52;;;;;;;9.80;5.65;;;0.40;73.00;;;;;;5026523;28;20064;-78
2023/12/28 09:17:27;;;;;;;11.88;5.35;;;0.40;72.90;;;;;;5042608;28;20132;-78
2023/12/28 09:19:57;;;;;;;12.93;5.65;;;0.50;72.80;;;;;;5029034;28;20068;-80
2023/12/28 09:22:53;;;;;;;13.25;6.25;;;0.40;72.90;;;;;;5044736;28;20049;-78
2023/12/28 09:25:20;;;;;;;8.40;5.90;;;0.40;73.00;;;;;;5042964;28;20144;-80
2023/12/28 09:27:48;;;;;;;13.25;5.95;;;0.40;73.30;;;;;;5039435;28;20099;-79
2023/12/28 09:33:53;;;;;;;11.82;5.47;;;0.50;73.00;;;;;;5044739;28;20078;-80
2023/12/28 09:38:04;;;;;;;;;;;;;;;;;;;;;
2023/12/28 09:41:10;;;;;;;9.32;6.03;;;0.40;72.80;;;;;;4874684;28;20682;-80
2023/12/28 09:44:51;;;;;;;10.75;5.93;;;0.50;73.30;;;;;;4933140;28;20054;-79
2023/12/28 09:48:37;;;;;;;;;;;;;;;;;;;;;
2023/12/28 09:51:39;;;;;;;10.55;5.03;;;0.40;73.70;;;;;;4931204;28;20481;-80
2023/12/28 09:54:38;;;;;;;;;;;;;;;;;;;;;
2023/12/28 10:06:40;;;;;;;;;;;0.40;73.30;;;;;;4921667;28;20567;-79
2023/12/28 10:09:26;;;;;;;16.38;8.77;;;0.40;73.80;;;;;;5059156;28;20292;-79
2023/12/28 10:16:00;;;;;;;30.23;10.68;;;0.50;73.80;;;;;;5003922;28;20615;-80
2023/12/28 10:18:42;;;;;;;;;;;;;;;;;;;;;
2023/12/28 10:25:01;;;;;;;29.85;13.73;;;0.60;73.90;;;;;;4931461;28;20138;-82
2023/12/28 10:48:08;;;;;;;73.50;27.40;;;0.60;74.40;;;;;;4827806;29;20056;-81
2023/12/28 10:50:40;;;;;;;108.95;35.15;;;0.70;74.40;;;;;;4932674;28;20798;-83
2023/12/28 10:53:23;;;;;;;83.18;33.05;;;0.80;74.60;;;;;;5064434;28;20045;-82
2023/12/28 10:56:16;;;;;;;152.57;54.22;;;0.80;74.20;;;;;;5068625;28;20052;-83
2023/12/28 10:58:51;;;;;;;134.20;48.25;;;0.80;74.40;;;;;;5019848;28;20056;-81
2023/12/28 11:01:25;;;;;;;96.53;38.28;;;0.90;74.10;;;;;;4991684;28;20173;-84
2023/12/28 11:04:05;;;;;;;78.90;32.08;;;0.90;74.00;;;;;;4945502;28;20047;-83
2023/12/28 11:06:33;;;;;;;94.63;36.13;;;0.80;73.90;;;;;;4864728;29;20060;-83
2023/12/28 11:09:07;;;;;;;116.65;39.78;;;0.80;74.30;;;;;;4766224;29;20054;-83
2023/12/28 11:11:35;;;;;;;107.32;39.42;;;0.80;74.30;;;;;;4694775;30;20077;-81
2023/12/28 11:14:03;;;;;;;105.43;37.72;;;0.90;74.10;;;;;;4668268;30;20140;-83
2023/12/28 11:16:31;;;;;;;101.07;36.95;;;0.90;74.40;;;;;;4664998;30;20050;-82
2023/12/28 11:19:01;;;;;;;52.80;19.52;;;0.90;74.60;;;;;;4681832;30;20111;-80
2023/12/28 11:21:29;;;;;;;45.78;18.52;;;0.90;74.40;;;;;;4708620;30;20063;-83
2023/12/28 11:24:00;;;;;;;44.58;17.42;;;0.90;74.20;;;;;;4696718;30;20479;-83
2023/12/28 11:26:28;;;;;;;48.58;20.73;;;0.90;74.20;;;;;;4724848;30;20056;-83
2023/12/28 11:29:02;;;;;;;47.20;19.83;;;0.90;74.40;;;;;;4675543;30;20050;-82
2023/12/28 11:31:33;;;;;;;42.42;19.98;;;0.90;74.40;;;;;;4686328;30;20056;-84
2023/12/28 11:34:05;;;;;;;45.35;20.45;;;0.90;74.60;;;;;;4710419;30;20502;-83
2023/12/28 11:36:35;;;;;;;55.10;24.77;;;0.90;74.60;;;;;;4740885;30;20060;-82
2023/12/28 11:39:04;;;;;;;33.20;15.88;;;0.90;74.50;;;;;;4756980;29;20055;-82
2023/12/28 11:41:33;;;;;;;38.25;16.58;;;0.90;74.60;;;;;;4801071;29;20056;-84
2023/12/28 11:44:04;;;;;;;24.83;12.98;;;0.80;74.60;;;;;;4812327;29;20105;-83
2023/12/28 11:46:33;;;;;;;28.50;14.77;;;0.90;74.60;;;;;;4773083;29;20054;-81
2023/12/28 11:51:57;;;;;;;31.55;17.35;;;0.80;74.80;;;;;;5069869;27;1404793;-83
2023/12/28 11:54:26;;;;;;;27.10;14.18;;;1.00;74.80;;;;;;5083547;28;20040;-83
2023/12/28 11:56:54;;;;;;;22.60;13.38;;;1.00;74.30;;;;;;5062913;28;20055;-85
2023/12/28 11:59:21;;;;;;;26.85;14.05;;;1.00;74.50;;;;;;5081060;28;20141;-80
2023/12/28 12:01:53;;;;;;;25.88;13.02;;;0.90;74.80;;;;;;5084564;28;20052;-80
2023/12/28 12:04:22;;;;;;;31.33;15.65;;;0.90;75.10;;;;;;5099404;28;20044;-81
2023/12/28 12:06:52;;;;;;;28.00;15.40;;;0.80;75.10;;;;;;5081549;28;20141;-80
2023/12/28 12:09:22;;;;;;;30.88;15.10;;;0.80;75.60;;;;;;5080274;28;20052;-81
2023/12/28 12:11:50;;;;;;;27.95;14.80;;;0.70;76.00;;;;;;5073300;28;20108;-81
2023/12/28 12:14:17;;;;;;;30.55;14.77;;;0.70;75.90;;;;;;5082954;28;20128;-85
2023/12/28 12:16:45;;;;;;;33.33;16.60;;;0.80;76.20;;;;;;5063301;28;20125;-85
2023/12/28 12:19:12;;;;;;;34.22;18.52;;;1.00;76.20;;;;;;5081365;28;20584;-84
2023/12/28 12:21:40;;;;;;;40.80;19.40;;;1.00;75.90;;;;;;5079296;28;20052;-84
2023/12/28 12:24:11;;;;;;;35.03;17.02;;;1.10;75.70;;;;;;5101246;28;20047;-82
2023/12/28 12:26:38;;;;;;;38.13;18.05;;;1.00;75.50;;;;;;5081901;28;20504;-81
2023/12/28 12:29:07;;;;;;;44.97;18.45;;;1.00;76.00;;;;;;5083930;28;20040;-80
2023/12/28 12:31:34;;;;;;;42.08;20.00;;;1.00;76.20;;;;;;5082208;28;20059;-82
2023/12/28 12:34:03;;;;;;;51.80;20.58;;;1.00;76.10;;;;;;5086529;28;20050;-81
2023/12/28 12:36:31;;;;;;;50.83;21.30;;;1.00;76.40;;;;;;5091726;28;20047;-81
2023/12/28 12:38:58;;;;;;;44.90;20.77;;;0.90;76.90;;;;;;5093879;28;20096;-82
2023/12/28 12:41:27;;;;;;;55.88;21.55;;;0.90;77.00;;;;;;5089377;28;20067;-81
2023/12/28 12:43:56;;;;;;;59.65;24.55;;;0.90;76.70;;;;;;5091261;28;20048;-82
2023/12/28 12:46:24;;;;;;;63.08;25.70;;;0.80;77.40;;;;;;5089200;28;20040;-81
2023/12/28 12:48:58;;;;;;;74.93;29.38;;;0.90;77.00;;;;;;5087601;28;20056;-84
2023/12/28 12:51:27;;;;;;;46.85;18.38;;;0.80;76.70;;;;;;5073731;28;20063;-81
2023/12/28 12:53:58;;;;;;;52.95;22.42;;;0.90;76.70;;;;;;5073316;28;20048;-81
2023/12/28 12:56:28;;;;;;;75.68;29.35;;;0.80;76.10;;;;;;5055570;28;20497;-80
2023/12/28 12:58:55;;;;;;;57.33;22.88;;;0.90;76.60;;;;;;5077143;28;20055;-82
2023/12/28 13:01:23;;;;;;;54.13;21.30;;;0.90;76.20;;;;;;5088802;28;20041;-82
2023/12/28 13:03:51;;;;;;;64.22;27.27;;;0.80;76.00;;;;;;5007625;28;20077;-81
2023/12/28 13:06:22;;;;;;;56.88;22.33;;;0.90;76.30;;;;;;4991953;28;20047;-79
2023/12/28 13:08:50;;;;;;;53.95;22.17;;;0.90;75.70;;;;;;4931165;28;20141;-81
2023/12/28 13:11:18;;;;;;;53.30;23.50;;;0.80;75.50;;;;;;4835949;29;20121;-81
2023/12/28 13:13:47;;;;;;;29.42;11.77;;;0.90;75.50;;;;;;4871199;29;20367;-81
2023/12/28 13:16:14;;;;;;;25.75;11.43;;;0.80;75.20;;;;;;4885070;29;20680;-82
2023/12/28 13:18:42;;;;;;;23.83;10.27;;;1.00;75.00;;;;;;4793333;29;20054;-82
2023/12/28 13:21:10;;;;;;;17.17;9.02;;;0.90;74.20;;;;;;4772226;29;20174;-81
2023/12/28 13:23:37;;;;;;;17.20;8.23;;;0.90;74.10;;;;;;4752830;29;20465;-81
2023/12/28 13:26:05;;;;;;;16.10;8.45;;;0.90;74.10;;;;;;4791605;29;20394;-82
2023/12/28 13:31:10;;;;;;;25.23;11.52;;;1.00;74.20;;;;;;5150003;27;20126;-82
2023/12/28 13:33:36;;;;;;;47.13;18.25;;;1.00;73.00;;;;;;5107924;28;20122;-81
2023/12/28 13:36:04;;;;;;;41.20;15.90;;;1.00;73.30;;;;;;5059549;28;20044;-81
2023/12/28 13:38:31;;;;;;;42.47;16.83;;;1.10;73.30;;;;;;5054725;28;20109;-82
2023/12/28 13:40:58;;;;;;;48.80;17.00;;;1.00;72.80;;;;;;5066234;28;20050;-81
2023/12/28 13:43:25;;;;;;;39.55;17.67;;;1.10;72.60;;;;;;4954100;28;20511;-83
2023/12/28 13:45:52;;;;;;;51.67;16.50;;;1.10;71.90;;;;;;4898919;28;20061;-82
2023/12/28 13:48:20;;;;;;;28.67;10.73;;;1.00;71.50;;;;;;4967216;28;20063;-82
2023/12/28 13:50:47;;;;;;;40.33;15.70;;;1.00;71.50;;;;;;4967027;28;20050;-82
2023/12/28 13:53:14;;;;;;;52.90;21.25;;;1.00;72.10;;;;;;4858426;28;1835597;-83
2023/12/28 13:55:42;;;;;;;49.97;20.90;;;1.00;71.20;;;;;;4891490;29;20048;-82
2023/12/28 14:04:54;;;;;;;26.90;10.95;;;1.10;70.80;;;;;;5095841;27;1411055;-82
2023/12/28 14:07:21;;;;;;;44.03;15.07;;;1.10;70.30;;;;;;5108538;28;20063;-82
2023/12/28 14:09:48;;;;;;;25.30;9.73;;;1.10;70.00;;;;;;5080526;28;20139;-83
2023/12/28 14:12:16;;;;;;;47.47;19.30;;;1.10;69.70;;;;;;5086122;28;20048;-80
2023/12/28 14:14:44;;;;;;;53.30;19.48;;;1.10;69.90;;;;;;5072154;28;20458;-81
2023/12/28 14:17:12;;;;;;;42.35;17.70;;;1.10;70.00;;;;;;5081251;28;20474;-81
2023/12/28 14:19:39;;;;;;;53.22;18.63;;;1.10;69.90;;;;;;5093973;28;20556;-82
2023/12/28 14:22:09;;;;;;;51.70;18.17;;;1.10;69.40;;;;;;5080092;28;20143;-80
2023/12/28 14:24:38;;;;;;;53.88;18.67;;;1.10;69.30;;;;;;5080728;28;20627;-81
2023/12/28 14:27:06;;;;;;;43.17;17.13;;;1.20;69.40;;;;;;5075208;28;20523;-81
2023/12/28 14:29:35;;;;;;;39.88;14.35;;;1.20;69.00;;;;;;5099798;28;20411;-80
2023/12/28 14:32:03;;;;;;;41.67;14.77;;;1.20;68.50;;;;;;5085492;28;20040;-81
2023/12/28 14:34:31;;;;;;;31.00;13.15;;;1.20;68.60;;;;;;5098618;28;20710;-83
2023/12/28 14:36:59;;;;;;;46.03;17.30;;;1.20;68.50;;;;;;5074088;28;20043;-81
2023/12/28 14:39:28;;;;;;;32.58;15.02;;;1.10;68.50;;;;;;5100651;28;20102;-80
2023/12/28 14:41:57;;;;;;;47.80;15.23;;;1.20;68.20;;;;;;5090456;28;20102;-81
2023/12/28 14:44:25;;;;;;;41.75;15.13;;;1.10;67.80;;;;;;5091184;28;20063;-82
2023/12/28 14:46:52;;;;;;;41.45;14.25;;;1.10;68.10;;;;;;5091957;28;20140;-82
2023/12/28 14:49:20;;;;;;;26.15;10.85;;;1.10;68.00;;;;;;5100367;28;20058;-81
2023/12/28 14:51:48;;;;;;;24.23;10.52;;;1.20;67.60;;;;;;5068259;28;20048;-82
2023/12/28 14:54:16;;;;;;;32.17;12.38;;;1.10;66.90;;;;;;5092349;28;20101;-81
2023/12/28 14:56:45;;;;;;;30.40;12.57;;;1.10;66.90;;;;;;5053424;28;20043;-81
2023/12/28 14:59:13;;;;;;;31.23;13.57;;;1.10;66.70;;;;;;5100705;28;20040;-80
2023/12/28 15:01:41;;;;;;;30.55;11.75;;;1.10;67.10;;;;;;5096750;28;20120;-83
2023/12/28 15:04:09;;;;;;;23.10;10.68;;;1.10;66.20;;;;;;5090793;28;20711;-82
2023/12/28 15:06:37;;;;;;;18.77;7.75;;;1.10;65.80;;;;;;5097446;28;20424;-82
2023/12/28 15:09:04;;;;;;;19.85;8.85;;;1.20;65.40;;;;;;5095340;28;20167;-82
2023/12/28 15:11:33;;;;;;;20.02;6.57;;;1.20;64.50;;;;;;5078911;28;20040;-80
2023/12/28 15:14:03;;;;;;;17.75;6.82;;;1.20;64.30;;;;;;5069786;28;20051;-80
2023/12/28 15:16:31;;;;;;;13.63;6.22;;;1.20;64.20;;;;;;5074784;28;20101;-81
2023/12/28 15:18:59;;;;;;;18.00;6.03;;;1.10;64.20;;;;;;5087003;28;20056;-81
2023/12/28 15:21:30;;;;;;;22.25;7.50;;;1.20;63.60;;;;;;5079330;28;20064;-82
2023/12/28 15:24:01;;;;;;;37.17;7.97;;;1.10;64.50;;;;;;5082239;28;20519;-82
2023/12/28 15:26:28;;;;;;;28.35;9.05;;;1.10;63.20;;;;;;5073717;28;20050;-81
2023/12/28 15:28:56;;;;;;;33.70;12.80;;;1.10;63.30;;;;;;5057428;28;20133;-81
2023/12/28 15:31:25;;;;;;;41.80;17.77;;;1.10;63.20;;;;;;5065915;28;20052;-79
2023/12/28 15:33:52;;;;;;;52.53;21.58;;;1.20;63.50;;;;;;5080849;28;20534;-81
2023/12/28 15:36:20;;;;;;;51.08;21.45;;;1.20;63.40;;;;;;5071206;28;20143;-80
2023/12/28 15:38:48;;;;;;;62.72;26.73;;;1.20;62.40;;;;;;5066380;28;20041;-81
2023/12/28 15:41:15;;;;;;;49.88;22.33;;;1.10;62.20;;;;;;5048532;28;20048;-81
2023/12/28 15:43:43;;;;;;;81.35;32.20;;;1.10;62.30;;;;;;5085768;28;20055;-80
2023/12/28 15:46:10;;;;;;;63.75;25.67;;;1.20;62.30;;;;;;5072132;28;20119;-80
2023/12/28 15:48:39;;;;;;;33.25;11.48;;;1.30;62.00;;;;;;5068770;28;20087;-82
2023/12/28 15:51:07;;;;;;;58.58;20.80;;;1.30;60.70;;;;;;5057609;28;20044;-82
2023/12/28 15:53:34;;;;;;;46.95;19.27;;;1.30;60.10;;;;;;5052061;28;20062;-83
2023/12/28 15:56:02;;;;;;;42.47;20.02;;;1.20;60.60;;;;;;5073399;28;20051;-82
2023/12/28 15:58:29;;;;;;;35.90;16.77;;;1.30;60.80;;;;;;5065211;28;20058;-82
2023/12/28 16:00:57;;;;;;;27.00;11.38;;;1.30;60.70;;;;;;5077899;28;20139;-82
2023/12/28 16:03:24;;;;;;;16.17;6.78;;;1.30;60.50;;;;;;5087416;28;20047;-80